Time;durP1;ratioP1;P1;durP2;ratioP2;P2;SDS_P1;SDS_P2;PMS_P1;PMS_P2;Temp;Humidity;BMP_temperature;BMP_pressure;BME280_temperature;BME280_humidity;BME280_pressure;Samples;Min_cycle;Max_cycle;Signal;HPM_P1;HPM_P2
2022/06/05 00:02:13;;;;;;;58.13;29.17;;;;;;;-141.50;100.00;63355.56;5059003;28;20044;-79
2022/06/05 00:05:10;;;;;;;46.30;27.25;;;;;;;-141.50;100.00;63355.56;4993925;28;20046;-80
2022/06/05 00:07:39;;;;;;;41.85;26.00;;;;;;;-141.50;100.00;63355.56;4996355;28;20066;-80
2022/06/05 00:10:20;;;;;;;41.05;24.55;;;;;;;-141.50;100.00;63355.56;5048147;28;20053;-78
2022/06/05 00:13:09;;;;;;;34.35;26.50;;;;;;;-141.50;100.00;63355.56;5090029;28;20048;-82
2022/06/05 00:15:38;;;;;;;35.38;26.75;;;;;;;-141.50;100.00;63355.56;5057845;28;20084;-80
2022/06/05 00:18:06;;;;;;;34.92;25.85;;;;;;;-141.50;100.00;63355.56;5057384;28;20083;-81
2022/06/05 00:20:33;;;;;;;48.22;28.77;;;;;;;-141.50;100.00;63355.56;5063950;28;20052;-79
2022/06/05 00:23:00;;;;;;;87.47;39.97;;;;;;;-141.50;100.00;63355.56;5062072;28;20432;-80
2022/06/05 00:25:37;;;;;;;74.07;35.53;;;;;;;-141.50;100.00;63355.56;5055139;28;20045;-79
2022/06/05 00:28:17;;;;;;;104.60;44.00;;;;;;;-141.50;100.00;63355.56;5051695;28;20052;-79
2022/06/05 00:31:25;;;;;;;73.95;34.70;;;;;;;-141.50;100.00;63355.56;5052552;28;20080;-79
2022/06/05 00:33:52;;;;;;;69.65;33.65;;;;;;;-141.50;100.00;63355.56;5049734;28;20049;-81
2022/06/05 00:36:45;;;;;;;92.47;40.90;;;;;;;-141.50;100.00;63355.56;5036502;28;20045;-79
2022/06/05 00:39:33;;;;;;;126.57;48.97;;;;;;;-141.50;100.00;63355.56;5035700;28;20049;-78
2022/06/05 00:42:05;;;;;;;120.45;49.97;;;;;;;-141.50;100.00;63355.56;5052783;28;20518;-80
2022/06/05 00:44:37;;;;;;;96.50;42.25;;;;;;;-141.50;100.00;63355.56;5051164;28;20080;-79
2022/06/05 00:47:05;;;;;;;93.90;43.92;;;;;;;-141.50;100.00;63355.56;5051937;28;20076;-78
2022/06/05 00:49:37;;;;;;;62.47;31.77;;;;;;;-141.50;100.00;63355.56;5035629;28;20048;-79
2022/06/05 00:52:07;;;;;;;43.65;26.15;;;;;;;-141.50;100.00;63355.56;5035648;28;20053;-79
2022/06/05 00:54:34;;;;;;;34.33;25.30;;;;;;;-141.50;100.00;63355.56;5067134;28;20099;-79
2022/06/05 00:57:04;;;;;;;32.70;25.98;;;;;;;-141.50;100.00;63355.56;5075520;28;20048;-80
2022/06/05 00:59:34;;;;;;;34.13;26.42;;;;;;;-141.50;100.00;63355.56;5074246;28;20093;-79
2022/06/05 01:02:01;;;;;;;35.92;27.55;;;;;;;-141.50;100.00;63355.56;5075056;28;20076;-80
2022/06/05 01:04:31;;;;;;;44.03;30.10;;;;;;;-141.50;100.00;63355.56;5056914;28;20048;-80
2022/06/05 01:06:57;;;;;;;38.22;28.90;;;;;;;-141.50;100.00;63355.56;5058571;28;20427;-79
2022/06/05 01:09:24;;;;;;;38.75;26.77;;;;;;;-141.50;100.00;63355.56;5057283;28;20541;-79
2022/06/05 01:12:06;;;;;;;103.43;43.25;;;;;;;-141.50;100.00;63355.56;5082948;28;20049;-79
2022/06/05 01:14:50;;;;;;;189.40;66.05;;;;;;;-141.50;100.00;63355.56;5082033;28;20059;-78
2022/06/05 01:17:24;;;;;;;88.20;38.47;;;;;;;-141.50;100.00;63355.56;5055925;28;20073;-78
2022/06/05 01:20:13;;;;;;;70.30;36.55;;;;;;;-141.50;100.00;63355.56;5073926;28;20660;-79
2022/06/05 01:23:11;;;;;;;57.42;31.70;;;;;;;-141.50;100.00;63355.56;5055609;28;20628;-78
2022/06/05 01:25:53;;;;;;;65.25;35.63;;;;;;;-141.50;100.00;63355.56;5055620;28;20124;-79
2022/06/05 01:28:24;;;;;;;63.58;35.47;;;;;;;-141.50;100.00;63355.56;5076071;28;20049;-81
2022/06/05 01:31:18;;;;;;;63.33;34.80;;;;;;;-141.50;100.00;63355.56;5075217;28;20049;-79
2022/06/05 01:34:00;;;;;;;57.60;31.35;;;;;;;-141.50;100.00;63355.56;5057190;28;20059;-80
2022/06/05 01:36:31;;;;;;;48.90;29.60;;;;;;;-141.50;100.00;63355.56;5074361;28;20076;-80
2022/06/05 01:39:08;;;;;;;165.00;69.68;;;;;;;-141.50;100.00;63355.56;5051483;28;20681;-80
2022/06/05 01:41:47;;;;;;;160.73;66.57;;;;;;;-141.50;100.00;63355.56;5071156;28;20560;-78
2022/06/05 01:44:23;;;;;;;122.13;53.45;;;;;;;-141.50;100.00;63355.56;5089853;28;20059;-79
2022/06/05 01:46:51;;;;;;;106.50;49.55;;;;;;;-141.50;100.00;63355.56;5089206;28;20053;-78
2022/06/05 01:49:23;;;;;;;95.45;46.60;;;;;;;-141.50;100.00;63355.56;5071570;28;20055;-78
2022/06/05 01:52:14;;;;;;;93.43;44.50;;;;;;;-141.50;100.00;63355.56;5073706;28;20041;-78
2022/06/05 01:54:48;;;;;;;64.45;35.42;;;;;;;-141.50;100.00;63355.56;5065252;28;20059;-76
2022/06/05 01:57:18;;;;;;;52.70;30.80;;;;;;;-141.50;100.00;63355.56;5083330;28;20083;-78
2022/06/05 01:59:50;;;;;;;46.70;31.35;;;;;;;-141.50;100.00;63355.56;5066882;28;20060;-81
2022/06/05 02:02:25;;;;;;;47.55;30.52;;;;;;;-141.50;100.00;63355.56;5075699;28;20072;-80
2022/06/05 02:05:06;;;;;;;92.53;42.15;;;;;;;-141.50;100.00;63355.56;5073088;28;20152;-80
2022/06/05 02:07:39;;;;;;;88.05;41.78;;;;;;;-141.50;100.00;63355.56;5072495;28;20048;-80
2022/06/05 02:10:21;;;;;;;62.90;33.20;;;;;;;-141.50;100.00;63355.56;5056124;28;20582;-79
2022/06/05 02:12:48;;;;;;;51.92;30.92;;;;;;;-141.50;100.00;63355.56;5071553;28;20572;-81
2022/06/05 02:15:15;;;;;;;74.07;35.45;;;;;;;-141.50;100.00;63355.56;5074023;28;20455;-80
2022/06/05 02:17:42;;;;;;;158.02;57.38;;;;;;;-141.50;100.00;63355.56;5075057;28;20136;-81
2022/06/05 02:20:10;;;;;;;174.82;60.67;;;;;;;-141.50;100.00;63355.56;5074716;28;20083;-81
2022/06/05 02:22:45;;;;;;;118.65;53.35;;;;;;;-141.50;100.00;63355.56;5083909;28;20061;-78
2022/06/05 02:25:13;;;;;;;;;;;;;;;-141.50;100.00;63355.56;5084221;28;20104;-79
2022/06/05 02:27:40;;;;;;;86.38;39.83;;;;;;;-141.50;100.00;63355.56;5083418;28;19952;-81
2022/06/05 02:30:08;;;;;;;52.67;34.75;;;;;;;-141.50;100.00;63355.56;5075152;28;20105;-79
2022/06/05 02:32:56;;;;;;;46.15;34.65;;;;;;;-141.50;100.00;63355.56;5078459;28;20052;-80
2022/06/05 02:35:49;;;;;;;50.58;35.85;;;;;;;-141.50;100.00;63355.56;5079589;28;20056;-80
2022/06/05 02:38:28;;;;;;;61.75;36.58;;;;;;;-141.50;100.00;63355.56;5069439;28;20079;-79
2022/06/05 02:41:12;;;;;;;68.40;37.55;;;;;;;-141.50;100.00;63355.56;5071965;28;20052;-78
2022/06/05 02:47:13;;;;;;;89.90;43.30;;;;;;;-141.50;100.00;63355.56;5090471;28;20040;-77
2022/06/05 02:49:57;;;;;;;85.10;41.75;;;;;;;-141.50;100.00;63355.56;5082567;28;20563;-78
2022/06/05 02:52:30;;;;;;;87.95;41.35;;;;;;;-141.50;100.00;63355.56;5070292;28;20141;-79
2022/06/05 02:55:03;;;;;;;71.60;37.55;;;;;;;-141.50;100.00;63355.56;5069390;28;20127;-80
2022/06/05 02:57:32;;;;;;;71.88;38.28;;;;;;;-141.50;100.00;63355.56;5083885;28;20074;-77
2022/06/05 02:59:58;;;;;;;58.30;35.85;;;;;;;-141.50;100.00;63355.56;5091965;28;20045;-79
2022/06/05 03:05:10;;;;;;;49.83;31.40;;;;;;;-141.50;100.00;63355.56;5075693;28;20052;-80
2022/06/05 03:07:37;;;;;;;49.67;31.70;;;;;;;-141.50;100.00;63355.56;5075211;28;20528;-80
2022/06/05 03:10:04;;;;;;;84.05;42.20;;;;;;;-141.50;100.00;63355.56;5075217;28;20114;-80
2022/06/05 03:12:31;;;;;;;99.13;47.10;;;;;;;-141.50;100.00;63355.56;5075016;28;20056;-82
2022/06/05 03:15:01;;;;;;;84.40;42.60;;;;;;;-141.50;100.00;63355.56;5075418;28;20048;-82
2022/06/05 03:17:29;;;;;;;61.50;36.25;;;;;;;-141.50;100.00;63355.56;5054220;28;20596;-83
2022/06/05 03:19:56;;;;;;;47.53;31.65;;;;;;;-141.50;100.00;63355.56;5054129;28;20481;-82
2022/06/05 03:22:24;;;;;;;47.70;34.35;;;;;;;-141.50;100.00;63355.56;5053812;28;20535;-80
2022/06/05 03:24:52;;;;;;;43.08;31.65;;;;;;;-141.50;100.00;63355.56;5054350;28;20123;-82
2022/06/05 03:27:21;;;;;;;39.42;31.05;;;;;;;-141.50;100.00;63355.56;5050922;28;20083;-80
2022/06/05 03:29:48;;;;;;;40.33;30.98;;;;;;;-141.50;100.00;63355.56;5054297;28;20088;-82
2022/06/05 03:32:14;;;;;;;41.97;30.80;;;;;;;-141.50;100.00;63355.56;5054237;28;20068;-81
2022/06/05 03:34:41;;;;;;;42.88;30.55;;;;;;;-141.50;100.00;63355.56;5049964;28;20076;-80
2022/06/05 03:37:07;;;;;;;43.85;30.45;;;;;;;-141.50;100.00;63355.56;5048623;28;20048;-80
2022/06/05 03:39:34;;;;;;;48.70;32.90;;;;;;;-141.50;100.00;63355.56;5051262;28;20118;-83
2022/06/05 03:42:01;;;;;;;44.58;31.17;;;;;;;-141.50;100.00;63355.56;5051727;28;20049;-80
2022/06/05 03:44:28;;;;;;;44.83;31.10;;;;;;;-141.50;100.00;63355.56;5051939;28;20075;-81
2022/06/05 03:46:55;;;;;;;44.08;32.47;;;;;;;-141.50;100.00;63355.56;5052835;28;20135;-82
2022/06/05 03:49:21;;;;;;;45.92;30.85;;;;;;;-141.50;100.00;63355.56;5056186;28;20152;-79
2022/06/05 03:51:48;;;;;;;50.83;31.45;;;;;;;-141.50;100.00;63355.56;5061737;28;20049;-81
2022/06/05 03:54:15;;;;;;;44.20;31.90;;;;;;;-141.50;100.00;63355.56;5051247;28;20081;-81
2022/06/05 03:56:41;;;;;;;48.03;31.55;;;;;;;-141.50;100.00;63355.56;5052897;28;20056;-79
2022/06/05 03:59:08;;;;;;;47.72;29.85;;;;;;;-141.50;100.00;63355.56;5053501;28;20084;-82
2022/06/05 04:01:37;;;;;;;49.58;31.38;;;;;;;-141.50;100.00;63355.56;5053428;28;20463;-80
2022/06/05 04:04:04;;;;;;;50.80;32.90;;;;;;;-141.50;100.00;63355.56;5052874;28;20049;-80
2022/06/05 04:06:31;;;;;;;48.05;32.30;;;;;;;-141.50;100.00;63355.56;5052572;28;20089;-81
2022/06/05 04:09:04;;;;;;;52.17;32.55;;;;;;;-141.50;100.00;63355.56;5050030;28;20076;-81
2022/06/05 04:11:33;;;;;;;47.92;32.88;;;;;;;-141.50;100.00;63355.56;5051561;28;20161;-82
2022/06/05 04:14:00;;;;;;;50.45;32.67;;;;;;;-141.50;100.00;63355.56;5063172;28;20087;-80
2022/06/05 04:16:29;;;;;;;46.03;31.77;;;;;;;-141.50;100.00;63355.56;5075878;28;20421;-81
2022/06/05 04:18:57;;;;;;;44.60;30.15;;;;;;;-141.50;100.00;63355.56;5057922;28;20052;-80
2022/06/05 04:21:33;;;;;;;44.85;29.88;;;;;;;-141.50;100.00;63355.56;5075745;28;20056;-78
2022/06/05 04:24:00;;;;;;;42.50;29.27;;;;;;;-141.50;100.00;63355.56;5074646;28;20114;-79
2022/06/05 04:26:30;;;;;;;38.15;28.95;;;;;;;-141.50;100.00;63355.56;5073707;28;20490;-78
2022/06/05 04:28:57;;;;;;;40.85;28.45;;;;;;;-141.50;100.00;63355.56;5073542;28;20197;-79
2022/06/05 04:31:28;;;;;;;41.10;29.20;;;;;;;-141.50;100.00;63355.56;5073927;28;20048;-80
2022/06/05 04:33:58;;;;;;;39.25;28.23;;;;;;;-141.50;100.00;63355.56;5074365;28;20199;-79
2022/06/05 04:36:27;;;;;;;37.78;28.85;;;;;;;-141.50;100.00;63355.56;5063776;28;20124;-77
2022/06/05 04:38:54;;;;;;;36.33;27.35;;;;;;;-141.50;100.00;63355.56;5085996;28;20071;-78
2022/06/05 04:41:22;;;;;;;40.10;29.77;;;;;;;-141.50;100.00;63355.56;5080727;28;20048;-80
2022/06/05 04:43:49;;;;;;;44.53;32.03;;;;;;;-141.50;100.00;63355.56;5081329;28;20048;-78
2022/06/05 04:46:18;;;;;;;43.22;32.95;;;;;;;-141.50;100.00;63355.56;5075957;28;20152;-80
2022/06/05 04:48:45;;;;;;;44.90;34.28;;;;;;;-141.50;100.00;63355.56;5055746;28;20048;-81
2022/06/05 04:51:15;;;;;;;44.92;32.88;;;;;;;-141.50;100.00;63355.56;5055230;28;20068;-81
2022/06/05 04:53:42;;;;;;;41.15;31.77;;;;;;;-141.50;100.00;63355.56;5073849;28;20114;-79
2022/06/05 04:56:16;;;;;;;38.65;31.40;;;;;;;-141.50;100.00;63355.56;5054833;28;20067;-80
2022/06/05 04:58:42;;;;;;;36.33;28.08;;;;;;;-141.50;100.00;63355.56;5055368;28;20049;-78
2022/06/05 05:01:16;;;;;;;35.25;26.73;;;;;;;-141.50;100.00;63355.56;5056011;28;20053;-80
2022/06/05 05:03:43;;;;;;;30.85;25.15;;;;;;;-141.50;100.00;63355.56;5054776;28;20123;-80
2022/06/05 05:06:15;;;;;;;28.30;23.17;;;;;;;-141.50;100.00;63355.56;5078904;28;20044;-80
2022/06/05 05:08:41;;;;;;;28.98;22.60;;;;;;;-141.50;100.00;63355.56;5072270;28;20136;-80
2022/06/05 05:11:08;;;;;;;26.33;21.45;;;;;;;-141.50;100.00;63355.56;5053419;28;20056;-82
2022/06/05 05:13:35;;;;;;;27.02;21.63;;;;;;;-141.50;100.00;63355.56;5074857;28;20198;-80
2022/06/05 05:16:02;;;;;;;24.27;18.70;;;;;;;-141.50;100.00;63355.56;5073418;28;20053;-82
2022/06/05 05:18:29;;;;;;;22.98;18.75;;;;;;;-141.50;100.00;63355.56;5053738;28;20140;-80
2022/06/05 05:21:05;;;;;;;23.30;17.98;;;;;;;-141.50;100.00;63355.56;5055323;28;20087;-80
2022/06/05 05:23:32;;;;;;;18.52;16.05;;;;;;;-141.50;100.00;63355.56;5053588;28;20074;-80
2022/06/05 05:26:29;;;;;;;20.17;15.88;;;;;;;-141.50;100.00;63355.56;5055876;28;20102;-80
2022/06/05 05:28:57;;;;;;;19.00;14.85;;;;;;;-141.50;100.00;63355.56;5048466;28;20613;-81
2022/06/05 05:31:27;;;;;;;16.95;14.70;;;;;;;-141.50;100.00;63355.56;5070682;28;20071;-80
2022/06/05 05:33:56;;;;;;;19.38;14.25;;;;;;;-141.50;100.00;63355.56;5073791;28;20045;-80
2022/06/05 05:36:24;;;;;;;18.67;13.85;;;;;;;-141.50;100.00;63355.56;5075028;28;20146;-82
2022/06/05 05:44:35;;;;;;;16.33;12.23;;;;;;;-141.50;100.00;63355.56;5075178;28;20098;-80
2022/06/05 05:47:06;;;;;;;14.18;10.88;;;;;;;-141.50;100.00;63355.56;5080167;28;20572;-78
2022/06/05 05:49:33;;;;;;;12.63;9.88;;;;;;;-141.50;100.00;63355.56;5079109;28;20045;-78
2022/06/05 05:52:03;;;;;;;11.52;9.25;;;;;;;-141.50;100.00;63355.56;5079145;28;20060;-80
2022/06/05 05:54:30;;;;;;;9.45;8.50;;;;;;;-141.50;100.00;63355.56;5079404;28;20550;-79
2022/06/05 05:56:56;;;;;;;10.10;8.88;;;;;;;-141.50;100.00;63355.56;5065697;28;20662;-79
2022/06/05 05:59:24;;;;;;;14.02;8.68;;;;;;;-141.50;100.00;63355.56;5059510;28;20040;-79
2022/06/05 06:01:51;;;;;;;9.10;7.85;;;;;;;-141.50;100.00;63355.56;5081408;28;20048;-80
2022/06/05 06:04:17;;;;;;;10.57;8.20;;;;;;;-141.50;100.00;63355.56;5073118;28;20098;-81
2022/06/05 06:06:48;;;;;;;10.23;8.77;;;;;;;-141.50;100.00;63355.56;5072528;28;20071;-80
2022/06/05 06:09:16;;;;;;;11.18;8.27;;;;;;;-141.50;100.00;63355.56;5095150;28;20058;-78
2022/06/05 06:11:43;;;;;;;10.55;8.63;;;;;;;-141.50;100.00;63355.56;5083456;28;20052;-80
2022/06/05 06:14:10;;;;;;;11.57;8.65;;;;;;;-141.50;100.00;63355.56;5088264;28;20136;-80
2022/06/05 06:16:37;;;;;;;10.63;7.95;;;;;;;-141.50;100.00;63355.56;5061251;28;20124;-81
2022/06/05 06:19:04;;;;;;;12.25;7.50;;;;;;;-141.50;100.00;63355.56;5081452;28;20047;-81
2022/06/05 06:21:33;;;;;;;10.35;7.82;;;;;;;-141.50;100.00;63355.56;5078467;28;20130;-80
2022/06/05 06:24:07;;;;;;;11.02;8.20;;;;;;;-141.50;100.00;63355.56;5078463;28;20639;-82
2022/06/05 06:26:34;;;;;;;11.35;7.65;;;;;;;-141.50;100.00;63355.56;5079742;28;20607;-82
2022/06/05 06:29:00;;;;;;;11.05;7.10;;;;;;;-141.50;100.00;63355.56;5054312;28;20075;-79
2022/06/05 06:31:27;;;;;;;10.80;7.55;;;;;;;-141.50;100.00;63355.56;5091940;28;20125;-79
2022/06/05 06:33:54;;;;;;;9.48;7.10;;;;;;;-141.50;100.00;63355.56;5068240;28;20580;-79
2022/06/05 06:36:21;;;;;;;9.00;7.07;;;;;;;-141.50;100.00;63355.56;5069307;28;20053;-81
2022/06/05 06:39:07;;;;;;;8.70;6.80;;;;;;;-141.50;100.00;63355.56;5051636;28;20393;-80
2022/06/05 06:41:34;;;;;;;11.73;7.25;;;;;;;-141.50;100.00;63355.56;5073867;28;20577;-80
2022/06/05 06:44:03;;;;;;;10.65;6.53;;;;;;;-141.50;100.00;63355.56;5077148;28;20135;-78
2022/06/05 06:46:33;;;;;;;8.73;6.75;;;;;;;-141.50;100.00;63355.56;5068577;28;20048;-79
2022/06/05 06:49:00;;;;;;;8.80;6.53;;;;;;;-141.50;100.00;63355.56;5072494;28;20117;-80
2022/06/05 06:51:26;;;;;;;9.27;6.38;;;;;;;-141.50;100.00;63355.56;5082567;28;20105;-79
2022/06/05 06:53:53;;;;;;;9.57;6.60;;;;;;;-141.50;100.00;63355.56;5056774;28;20049;-79
2022/06/05 06:56:23;;;;;;;9.00;6.65;;;;;;;-141.50;100.00;63355.56;5063920;28;20052;-79
2022/06/05 06:58:54;;;;;;;9.02;6.03;;;;;;;-141.50;100.00;63355.56;5049777;28;20080;-80
2022/06/05 07:01:21;;;;;;;8.43;6.60;;;;;;;-141.50;100.00;63355.56;5059533;28;20430;-79
2022/06/05 07:03:48;;;;;;;11.07;5.97;;;;;;;-141.50;100.00;63355.56;5047884;28;20686;-79
2022/06/05 07:06:15;;;;;;;10.32;5.97;;;;;;;-141.50;100.00;63355.56;5060763;28;20052;-79
2022/06/05 07:08:43;;;;;;;8.15;6.35;;;;;;;-141.50;100.00;63355.56;5047531;28;20173;-78
2022/06/05 07:11:12;;;;;;;7.35;5.82;;;;;;;-141.50;100.00;63355.56;5065611;28;20092;-79
2022/06/05 07:13:46;;;;;;;8.18;6.38;;;;;;;-141.50;100.00;63355.56;5074432;28;20052;-79
2022/06/05 07:16:13;;;;;;;7.07;5.40;;;;;;;-141.50;100.00;63355.56;5089132;28;20029;-79
2022/06/05 07:18:40;;;;;;;8.43;5.75;;;;;;;-141.50;100.00;63355.56;5070506;28;20059;-78
2022/06/05 07:21:20;;;;;;;7.57;4.68;;;;;;;-141.50;100.00;63355.56;5064052;28;20056;-82
2022/06/05 07:23:47;;;;;;;6.47;4.70;;;;;;;-141.50;100.00;63355.56;5032979;28;20489;-82
2022/06/05 07:26:17;;;;;;;7.65;5.40;;;;;;;-141.50;100.00;63355.56;5068165;28;20131;-83
2022/06/05 07:28:44;;;;;;;5.30;4.45;;;;;;;-141.50;100.00;63355.56;5067200;28;20044;-81
2022/06/05 07:31:12;;;;;;;10.13;5.18;;;;;;;-141.50;100.00;63355.56;5066035;28;20098;-81
2022/06/05 07:33:41;;;;;;;8.95;5.10;;;;;;;-141.50;100.00;63355.56;5049057;28;20152;-81
2022/06/05 07:36:12;;;;;;;9.15;4.95;;;;;;;-141.50;100.00;63355.56;5062223;28;20056;-81
2022/06/05 07:38:40;;;;;;;10.13;5.32;;;;;;;-141.50;100.00;63355.56;5068046;28;20151;-81
2022/06/05 07:41:15;;;;;;;11.98;5.15;;;;;;;-141.50;100.00;63355.56;5074639;28;20514;-79
2022/06/05 07:43:42;;;;;;;;;;;;;;;-141.50;100.00;63355.56;5072429;28;20060;-81
2022/06/05 07:46:12;;;;;;;6.60;5.20;;;;;;;-141.50;100.00;63355.56;5053066;28;20003;-81
2022/06/05 07:48:40;;;;;;;11.82;5.35;;;;;;;-141.50;100.00;63355.56;5073616;28;20056;-81
2022/06/05 07:56:44;;;;;;;10.13;5.65;;;;;;;-141.50;100.00;63355.56;5077347;28;20064;-81
2022/06/05 07:59:11;;;;;;;7.03;5.32;;;;;;;-141.50;100.00;63355.56;5058200;28;20090;-81
2022/06/05 08:01:53;;;;;;;6.80;5.28;;;;;;;-141.50;100.00;63355.56;5079469;28;20064;-81
2022/06/05 08:04:20;;;;;;;7.00;5.18;;;;;;;-141.50;100.00;63355.56;5069359;28;20087;-81
2022/06/05 08:06:52;;;;;;;11.18;5.88;;;;;;;-141.50;100.00;63355.56;5070289;28;20666;-81
2022/06/05 08:09:19;;;;;;;7.90;5.72;;;;;;;-141.50;100.00;63355.56;5053184;28;20452;-82
2022/06/05 08:11:46;;;;;;;7.47;5.75;;;;;;;-141.50;100.00;63355.56;5056868;28;20072;-82
2022/06/05 08:14:14;;;;;;;8.57;5.32;;;;;;;-141.50;100.00;63355.56;5057166;28;20052;-81
2022/06/05 08:16:43;;;;;;;9.55;5.70;;;;;;;-141.50;100.00;63355.56;5071069;28;20086;-83
2022/06/05 08:19:13;;;;;;;8.38;5.68;;;;;;;-141.50;100.00;63355.56;5068770;28;20048;-82
2022/06/05 08:21:40;;;;;;;9.68;5.70;;;;;;;-141.50;100.00;63355.56;5052190;28;20080;-82
2022/06/05 08:24:08;;;;;;;8.05;5.07;;;;;;;-141.50;100.00;63355.56;5052346;28;20056;-84
2022/06/05 08:26:35;;;;;;;6.88;5.30;;;;;;;-141.50;100.00;63355.56;5070713;28;20148;-82
2022/06/05 08:29:02;;;;;;;7.05;4.82;;;;;;;-141.50;100.00;63355.56;5052258;28;20102;-83
2022/06/05 08:31:29;;;;;;;8.95;5.45;;;;;;;-141.50;100.00;63355.56;5073105;28;20537;-81
2022/06/05 08:33:57;;;;;;;10.43;5.00;;;;;;;-141.50;100.00;63355.56;5071276;28;20461;-80
2022/06/05 08:36:25;;;;;;;8.65;4.85;;;;;;;-141.50;100.00;63355.56;5052279;28;20071;-82
2022/06/05 08:42:02;;;;;;;7.70;5.00;;;;;;;-141.50;100.00;63355.56;5077424;28;20052;-82
2022/06/05 08:44:42;;;;;;;6.72;4.80;;;;;;;-141.50;100.00;63355.56;5073371;28;20053;-80
2022/06/05 08:47:20;;;;;;;7.15;4.60;;;;;;;-141.50;100.00;63355.56;5074427;28;20049;-82
2022/06/05 08:49:46;;;;;;;6.68;4.80;;;;;;;-141.50;100.00;63355.56;5070383;28;20060;-81
2022/06/05 08:52:28;;;;;;;8.38;4.43;;;;;;;-141.50;100.00;63355.56;5070720;28;20343;-82
2022/06/05 08:55:31;;;;;;;5.65;4.28;;;;;;;-141.50;100.00;63355.56;5033844;28;20117;-82
2022/06/05 08:58:13;;;;;;;6.50;4.70;;;;;;;-141.50;100.00;63355.56;5049987;28;20096;-82
2022/06/05 09:00:42;;;;;;;6.22;4.38;;;;;;;-141.50;100.00;63355.56;5040764;28;20079;-80
2022/06/05 09:03:22;;;;;;;7.85;4.18;;;;;;;-141.50;100.00;63355.56;5068166;28;20173;-81
2022/06/05 09:05:54;;;;;;;6.72;4.32;;;;;;;-141.50;100.00;63355.56;5049938;28;20430;-80
2022/06/05 09:08:32;;;;;;;7.00;4.55;;;;;;;-141.50;100.00;63355.56;5080414;28;20045;-81
2022/06/05 09:11:06;;;;;;;6.38;4.53;;;;;;;-141.50;100.00;63355.56;5082556;28;20079;-80
2022/06/05 09:13:56;;;;;;;5.82;3.65;;;;;;;-141.50;100.00;63355.56;5069772;28;20053;-82
2022/06/05 09:16:30;;;;;;;4.78;3.40;;;;;;;-141.50;100.00;63355.56;5053391;28;20075;-82
2022/06/05 09:18:58;;;;;;;10.05;3.33;;;;;;;-141.50;100.00;63355.56;5060672;28;20088;-83
2022/06/05 09:21:38;;;;;;;4.60;3.42;;;;;;;-141.50;100.00;63355.56;5074287;28;20117;-81
2022/06/05 09:24:11;;;;;;;4.35;3.20;;;;;;;-141.50;100.00;63355.56;5057115;28;20045;-82
2022/06/05 09:26:48;;;;;;;4.60;3.88;;;;;;;-141.50;100.00;63355.56;5055692;28;20135;-82
2022/06/05 09:29:14;;;;;;;5.80;3.65;;;;;;;-141.50;100.00;63355.56;5061305;28;20060;-84
2022/06/05 09:31:47;;;;;;;5.05;3.22;;;;;;;-141.50;100.00;63355.56;5060817;28;20036;-83
2022/06/05 09:34:21;;;;;;;6.50;3.05;;;;;;;-141.50;100.00;63355.56;5059353;28;20040;-84
2022/06/05 09:37:00;;;;;;;3.25;2.95;;;;;;;-141.50;100.00;63355.56;5083723;28;20559;-85
2022/06/05 09:39:33;;;;;;;5.88;3.00;;;;;;;-141.50;100.00;63355.56;5091318;28;20044;-74
2022/06/05 09:42:07;;;;;;;6.32;2.85;;;;;;;-141.50;100.00;63355.56;5089042;28;20048;-75
2022/06/05 09:44:48;;;;;;;4.72;2.67;;;;;;;-141.50;100.00;63355.56;5063001;28;20071;-76
2022/06/05 09:47:35;;;;;;;3.63;2.63;;;;;;;-141.50;100.00;63355.56;5084658;28;20059;-84
2022/06/05 09:50:19;;;;;;;2.97;2.53;;;;;;;-141.50;100.00;63355.56;5080296;28;20037;-83
2022/06/05 09:52:48;;;;;;;4.47;2.60;;;;;;;-141.50;100.00;63355.56;5075292;28;20056;-82
2022/06/05 09:55:19;;;;;;;6.38;2.80;;;;;;;-141.50;100.00;63355.56;5086722;28;20048;-82
2022/06/05 10:00:53;;;;;;;3.67;2.42;;;;;;;-141.50;100.00;63355.56;5096085;28;20083;-82
2022/06/05 10:03:29;;;;;;;5.38;2.45;;;;;;;-141.50;100.00;63355.56;5094382;28;20052;-83
2022/06/05 10:06:18;;;;;;;5.85;2.38;;;;;;;-141.50;100.00;63355.56;5100923;28;20063;-82
2022/06/05 10:08:50;;;;;;;5.65;2.38;;;;;;;-141.50;100.00;63355.56;5081713;28;20090;-81
2022/06/05 10:11:33;;;;;;;3.08;2.47;;;;;;;-141.50;100.00;63355.56;5099123;28;20059;-80
2022/06/05 10:14:10;;;;;;;4.05;2.40;;;;;;;-141.50;100.00;63355.56;5069312;28;20084;-82
2022/06/05 10:17:08;;;;;;;4.53;2.42;;;;;;;-141.50;100.00;63355.56;5056442;28;20081;-82
2022/06/05 10:19:54;;;;;;;3.45;2.60;;;;;;;-141.50;100.00;63355.56;5043292;28;20077;-82
2022/06/05 10:22:26;;;;;;;6.35;2.67;;;;;;;-141.50;100.00;63355.56;5054074;28;20053;-82
2022/06/05 10:25:27;;;;;;;4.15;2.22;;;;;;;-141.50;100.00;63355.56;5056525;28;20063;-81
2022/06/05 10:27:59;;;;;;;2.63;2.38;;;;;;;-141.50;100.00;63355.56;5056058;28;20053;-83
2022/06/05 10:30:33;;;;;;;5.72;2.42;;;;;;;-141.50;100.00;63355.56;5055590;28;20049;-82
2022/06/05 10:33:12;;;;;;;2.58;2.13;;;;;;;-141.50;100.00;63355.56;5058000;28;20083;-82
2022/06/05 10:35:47;;;;;;;3.50;2.28;;;;;;;-141.50;100.00;63355.56;5062858;28;20052;-82
2022/06/05 10:38:32;;;;;;;5.70;2.20;;;;;;;-141.50;100.00;63355.56;5061462;28;20048;-81
2022/06/05 10:41:14;;;;;;;4.20;2.58;;;;;;;-141.50;100.00;63355.56;5067213;28;20056;-83
2022/06/05 10:43:42;;;;;;;3.20;2.28;;;;;;;-141.50;100.00;63355.56;5067976;28;20423;-82
2022/06/05 10:46:26;;;;;;;4.93;2.10;;;;;;;-141.50;100.00;63355.56;5055235;28;20250;-79
2022/06/05 10:49:11;;;;;;;5.63;2.20;;;;;;;-141.50;100.00;63355.56;5052287;28;20110;-83
2022/06/05 10:51:58;;;;;;;2.72;2.05;;;;;;;-141.50;100.00;63355.56;5049212;28;20048;-81
2022/06/05 10:54:42;;;;;;;2.85;1.90;;;;;;;-141.50;100.00;63355.56;5048549;28;20069;-83
2022/06/05 10:57:09;;;;;;;5.35;2.38;;;;;;;-141.50;100.00;63355.56;5051102;28;20299;-82
2022/06/05 10:59:42;;;;;;;4.88;2.10;;;;;;;-141.50;100.00;63355.56;5051344;28;20045;-83
2022/06/05 11:02:50;;;;;;;3.67;2.10;;;;;;;-141.50;100.00;63355.56;5051183;28;20549;-81
2022/06/05 11:05:36;;;;;;;5.32;2.10;;;;;;;-141.50;100.00;63355.56;5054438;28;20063;-82
2022/06/05 11:08:05;;;;;;;4.40;2.20;;;;;;;-141.50;100.00;63355.56;5053838;28;20458;-82
2022/06/05 11:14:34;;;;;;;2.40;2.20;;;;;;;-141.50;100.00;63355.56;5062014;28;20075;-82
2022/06/05 11:17:07;;;;;;;3.42;2.47;;;;;;;-141.50;100.00;63355.56;5057224;28;20064;-81
2022/06/05 11:19:46;;;;;;;4.03;2.53;;;;;;;-141.50;100.00;63355.56;5073650;28;20048;-82
2022/06/05 11:22:16;;;;;;;5.47;2.70;;;;;;;-141.50;100.00;63355.56;5074982;28;20049;-80
2022/06/05 11:24:52;;;;;;;5.18;3.08;;;;;;;-141.50;100.00;63355.56;5066674;28;20487;-79
2022/06/05 11:27:39;;;;;;;4.88;3.00;;;;;;;-141.50;100.00;63355.56;5063074;28;20045;-81
2022/06/05 11:30:26;;;;;;;6.95;2.70;;;;;;;-141.50;100.00;63355.56;5078412;28;20040;-79
2022/06/05 11:33:04;;;;;;;5.30;3.22;;;;;;;-141.50;100.00;63355.56;5074520;28;20106;-81
2022/06/05 11:35:55;;;;;;;4.25;3.20;;;;;;;-141.50;100.00;63355.56;5075984;28;20079;-79
2022/06/05 11:38:40;;;;;;;4.60;3.45;;;;;;;-141.50;100.00;63355.56;5055752;28;20131;-81
2022/06/05 11:41:30;;;;;;;7.70;3.75;;;;;;;-141.50;100.00;63355.56;5076222;28;20056;-79
2022/06/05 11:44:26;;;;;;;4.18;3.60;;;;;;;-141.50;100.00;63355.56;5066709;28;20082;-81
2022/06/05 11:47:06;;;;;;;5.90;3.55;;;;;;;-141.50;100.00;63355.56;5086917;28;20063;-79
2022/06/05 11:49:42;;;;;;;3.85;3.45;;;;;;;-141.50;100.00;63355.56;5086221;28;20040;-81
2022/06/05 11:52:26;;;;;;;6.15;3.78;;;;;;;-141.50;100.00;63355.56;5084011;28;20090;-82
2022/06/05 11:55:16;;;;;;;4.47;3.65;;;;;;;-141.50;100.00;63355.56;5058838;28;20079;-82
2022/06/05 11:58:35;;;;;;;5.32;3.42;;;;;;;-141.50;100.00;63355.56;5083405;28;20052;-83